• 1385014 10153382300060425 128216538 n
  • 3
  • 6
  • 7
  • 1
  • 10
  • 未命名
  • 121
  • 55
  • 2
  • cargo

Welcome aboard

Current Weather

[source: ADDS]
METAR
RCTP 260430Z 01010KT 330V030 9999 FEW015 SCT040 BKN200 32/25 Q1011 NOSIG RMK A2988 =
TAF
TAF AMD RCTP 260245Z 2602/2624 36005KT 9999 FEW020 TEMPO 2603/2609 01010KT BECMG 2612/2614 09005KT TEMPO 2618/2624 15005KT =